Time;durP1;ratioP1;P1;durP2;ratioP2;P2;SDS_P1;SDS_P2;PMS_P1;PMS_P2;Temp;Humidity;BMP_temperature;BMP_pressure;BME280_temperature;BME280_humidity;BME280_pressure;Samples;Min_cycle;Max_cycle;Signal;HPM_P1;HPM_P2
2023/04/24 00:01:29;;;;;;;7.17;1.70;;;22.60;99.90;;;;;;5112930;28;20269;-69
2023/04/24 00:03:59;;;;;;;12.00;2.37;;;22.30;99.90;;;;;;5114463;28;20201;-71
2023/04/24 00:06:32;;;;;;;5.50;1.80;;;22.10;99.90;;;;;;5113742;28;20199;-72
2023/04/24 00:09:04;;;;;;;7.17;2.10;;;21.90;99.90;;;;;;5114315;28;20182;-71
2023/04/24 00:11:32;;;;;;;7.63;2.43;;;21.70;99.90;;;;;;5114340;28;20642;-71
2023/04/24 00:13:59;;;;;;;6.40;2.23;;;21.50;99.90;;;;;;5114214;28;20635;-72
2023/04/24 00:16:27;;;;;;;10.27;2.40;;;21.50;99.90;;;;;;5114071;28;20647;-71
2023/04/24 00:18:55;;;;;;;11.33;2.33;;;21.50;99.90;;;;;;5097388;28;20179;-71
2023/04/24 00:21:25;;;;;;;9.77;3.00;;;21.40;99.90;;;;;;5099039;28;20183;-73
2023/04/24 00:23:53;;;;;;;7.83;1.90;;;21.40;99.90;;;;;;5101786;28;20189;-73
2023/04/24 00:26:20;;;;;;;5.00;2.30;;;21.50;99.90;;;;;;5109584;28;20234;-71
2023/04/24 00:28:48;;;;;;;7.90;2.10;;;21.60;99.90;;;;;;5097080;28;20217;-70
2023/04/24 00:31:15;;;;;;;6.27;1.77;;;21.80;99.90;;;;;;5101928;28;20220;-72
2023/04/24 00:33:42;;;;;;;5.63;1.70;;;22.10;99.90;;;;;;5112383;28;20553;-73
2023/04/24 00:36:10;;;;;;;6.27;1.90;;;23.90;99.90;;;;;;5104638;28;20657;-74
2023/04/24 00:38:37;;;;;;;5.43;1.93;;;25.40;99.90;;;;;;5098803;28;20676;-76
2023/04/24 00:41:05;;;;;;;6.50;1.83;;;26.60;99.90;;;;;;5100456;28;20183;-74
2023/04/24 00:43:32;;;;;;;5.50;1.50;;;27.50;99.90;;;;;;5102971;28;20204;-73
2023/04/24 00:46:01;;;;;;;9.97;2.53;;;28.10;99.90;;;;;;5102602;28;20190;-74
2023/04/24 00:48:29;;;;;;;14.37;2.03;;;28.40;99.90;;;;;;5092992;28;20679;-72
2023/04/24 00:50:57;;;;;;;9.30;2.30;;;28.40;99.90;;;;;;5110429;28;20174;-73
2023/04/24 00:53:24;;;;;;;7.20;2.00;;;27.80;99.90;;;;;;5106036;28;20187;-74
2023/04/24 00:55:52;;;;;;;11.13;2.47;;;26.40;99.90;;;;;;5100708;28;20190;-74
2023/04/24 00:58:20;;;;;;;6.97;1.90;;;25.70;99.90;;;;;;5092181;28;20532;-73
2023/04/24 01:00:50;;;;;;;6.67;2.23;;;24.80;99.90;;;;;;5098868;28;20689;-69
2023/04/24 01:03:18;;;;;;;4.47;1.50;;;24.20;99.90;;;;;;5107363;28;20209;-71
2023/04/24 01:05:45;;;;;;;4.97;1.47;;;23.80;99.90;;;;;;5102818;28;20271;-72
2023/04/24 01:08:14;;;;;;;7.53;1.83;;;23.60;99.90;;;;;;5091627;28;20218;-70
2023/04/24 01:10:43;;;;;;;8.27;2.13;;;23.70;99.90;;;;;;5091857;28;20266;-70
2023/04/24 01:13:11;;;;;;;6.60;1.70;;;24.40;99.90;;;;;;5091553;28;20176;-74
2023/04/24 01:15:39;;;;;;;7.47;1.70;;;24.60;99.90;;;;;;5099529;28;20183;-70
2023/04/24 01:18:06;;;;;;;7.00;1.77;;;24.40;99.90;;;;;;5092870;28;20182;-72
2023/04/24 01:20:36;;;;;;;9.17;2.03;;;24.00;99.90;;;;;;5097607;28;20183;-71
2023/04/24 01:23:04;;;;;;;7.40;1.60;;;23.70;99.90;;;;;;5098497;28;20186;-72
2023/04/24 01:25:32;;;;;;;8.83;1.63;;;23.50;99.90;;;;;;5115749;28;20214;-71
2023/04/24 01:27:59;;;;;;;9.13;2.17;;;24.40;99.90;;;;;;5113484;28;20214;-70
2023/04/24 01:30:28;;;;;;;4.73;1.40;;;25.90;99.90;;;;;;5104576;28;20174;-72
2023/04/24 01:32:56;;;;;;;7.60;1.50;;;27.30;99.90;;;;;;5116146;28;20171;-72
2023/04/24 01:35:23;;;;;;;6.07;1.60;;;28.00;99.90;;;;;;5102155;28;20688;-72
2023/04/24 01:37:51;;;;;;;10.03;1.67;;;28.70;99.90;;;;;;5095571;28;20167;-73
2023/04/24 01:40:18;;;;;;;8.63;1.30;;;29.10;99.90;;;;;;5095578;28;20642;-72
2023/04/24 01:42:46;;;;;;;5.80;1.50;;;29.40;99.90;;;;;;5094837;28;20709;-71
2023/04/24 01:45:14;;;;;;;9.03;1.50;;;28.00;99.90;;;;;;5095387;28;20286;-72
2023/04/24 01:47:42;;;;;;;7.30;1.90;;;27.20;99.90;;;;;;5109550;28;20772;-71
2023/04/24 01:50:10;;;;;;;7.73;1.53;;;26.00;99.90;;;;;;5115296;28;20171;-71
2023/04/24 01:52:37;;;;;;;8.90;1.70;;;25.40;99.90;;;;;;5115642;28;20649;-73
2023/04/24 01:55:06;;;;;;;6.23;1.67;;;25.00;99.90;;;;;;5115576;28;20703;-72
2023/04/24 01:57:34;;;;;;;9.00;2.23;;;25.40;99.90;;;;;;5114656;28;20190;-72
2023/04/24 02:00:04;;;;;;;6.93;1.60;;;26.10;99.90;;;;;;5113878;27;20186;-72
2023/04/24 02:02:32;;;;;;;7.67;1.50;;;26.80;99.90;;;;;;5114853;28;20179;-72
2023/04/24 02:04:59;;;;;;;8.63;1.67;;;26.60;99.90;;;;;;5114607;28;20653;-72
2023/04/24 02:07:27;;;;;;;9.27;1.63;;;25.80;99.90;;;;;;5115495;28;20248;-71
2023/04/24 02:09:55;;;;;;;9.57;1.70;;;25.20;99.90;;;;;;5115103;28;20182;-71
2023/04/24 02:12:22;;;;;;;4.13;1.63;;;24.80;99.90;;;;;;5113263;28;20182;-72
2023/04/24 02:14:50;;;;;;;5.20;1.53;;;24.40;99.90;;;;;;5114810;28;20182;-71
2023/04/24 02:17:18;;;;;;;4.67;0.97;;;24.10;99.90;;;;;;5114556;28;20236;-71
2023/04/24 02:19:46;;;;;;;5.13;1.03;;;23.90;99.90;;;;;;5112832;28;20179;-71
2023/04/24 02:22:14;;;;;;;3.47;0.70;;;23.90;99.90;;;;;;5109792;28;20539;-71
2023/04/24 02:24:41;;;;;;;5.40;1.23;;;24.00;99.90;;;;;;5095148;28;20213;-70
2023/04/24 02:27:09;;;;;;;5.37;0.97;;;23.80;99.90;;;;;;5106369;28;20218;-70
2023/04/24 02:29:36;;;;;;;3.50;0.97;;;23.80;99.90;;;;;;5102579;28;20550;-70
2023/04/24 02:32:04;;;;;;;5.63;1.10;;;23.70;99.90;;;;;;5115020;28;20197;-70
2023/04/24 02:34:31;;;;;;;5.27;1.23;;;24.40;99.90;;;;;;5114264;28;20531;-71
2023/04/24 02:36:59;;;;;;;4.30;0.83;;;25.70;99.90;;;;;;5110663;28;20182;-71
2023/04/24 02:39:26;;;;;;;5.17;1.13;;;26.80;99.90;;;;;;5114823;28;20175;-70
2023/04/24 02:41:54;;;;;;;4.40;0.93;;;27.50;99.90;;;;;;5099255;28;20183;-70
2023/04/24 02:44:22;;;;;;;8.17;1.13;;;28.10;99.90;;;;;;5094333;28;20175;-72
2023/04/24 02:46:49;;;;;;;4.63;1.00;;;28.40;99.90;;;;;;5094202;28;20207;-71
2023/04/24 02:49:17;;;;;;;4.47;0.80;;;29.00;99.90;;;;;;5093628;28;20175;-70
2023/04/24 02:51:44;;;;;;;4.77;0.97;;;28.40;99.90;;;;;;5094291;28;20507;-71
2023/04/24 02:54:11;;;;;;;5.90;1.10;;;27.50;99.90;;;;;;5094060;28;20260;-71
2023/04/24 02:56:39;;;;;;;6.00;1.30;;;27.90;99.90;;;;;;5093425;28;20186;-71
2023/04/24 02:59:07;;;;;;;5.20;1.27;;;27.80;99.90;;;;;;5101227;28;20185;-71
2023/04/24 03:01:35;;;;;;;5.47;1.50;;;28.00;99.90;;;;;;5114638;28;20170;-72
2023/04/24 03:04:03;;;;;;;6.67;1.37;;;27.40;99.90;;;;;;5114102;28;20180;-69
2023/04/24 03:06:32;;;;;;;9.73;1.77;;;26.50;99.90;;;;;;5096936;27;20203;-71
2023/04/24 03:09:00;;;;;;;10.97;2.73;;;25.40;99.90;;;;;;5094096;28;20175;-71
2023/04/24 03:11:27;;;;;;;7.20;1.53;;;24.80;99.90;;;;;;5093152;28;20167;-72
2023/04/24 03:13:54;;;;;;;11.00;2.63;;;24.20;99.90;;;;;;5093567;28;20211;-70
2023/04/24 03:16:22;;;;;;;7.67;2.10;;;23.70;99.90;;;;;;5108984;28;20174;-72
2023/04/24 03:18:49;;;;;;;10.20;2.40;;;23.60;99.90;;;;;;5113443;28;20180;-71
2023/04/24 03:21:17;;;;;;;9.67;2.33;;;23.30;99.90;;;;;;5101240;28;20179;-70
2023/04/24 03:23:44;;;;;;;9.33;2.40;;;23.40;99.90;;;;;;5096774;28;20239;-71
2023/04/24 03:26:11;;;;;;;7.47;1.50;;;23.40;99.90;;;;;;5097427;28;20321;-71
2023/04/24 03:28:39;;;;;;;11.70;2.50;;;23.40;99.90;;;;;;5093194;28;20598;-71
2023/04/24 03:31:06;;;;;;;10.20;2.17;;;23.50;99.90;;;;;;5093232;28;20650;-69
2023/04/24 03:33:34;;;;;;;12.53;2.60;;;23.50;99.90;;;;;;5108501;28;20205;-70
2023/04/24 03:36:01;;;;;;;10.77;2.40;;;23.30;99.90;;;;;;5102900;28;20558;-70
2023/04/24 03:38:29;;;;;;;12.17;2.93;;;22.90;99.90;;;;;;5092945;28;20202;-72
2023/04/24 03:40:56;;;;;;;9.37;2.30;;;22.60;99.90;;;;;;5103346;28;20225;-72
2023/04/24 03:43:24;;;;;;;9.67;2.40;;;22.70;99.90;;;;;;5112635;28;20182;-72
2023/04/24 03:45:51;;;;;;;13.83;2.73;;;22.60;99.90;;;;;;5112705;28;20187;-72
2023/04/24 03:48:18;;;;;;;12.90;2.70;;;22.40;99.90;;;;;;5110654;28;20226;-72
2023/04/24 03:50:46;;;;;;;12.53;2.57;;;22.40;99.90;;;;;;5112965;27;20202;-71
2023/04/24 03:53:13;;;;;;;13.30;2.57;;;22.30;99.90;;;;;;5113117;28;20233;-71
2023/04/24 03:55:41;;;;;;;19.10;2.83;;;22.30;99.90;;;;;;5112544;28;20227;-73
2023/04/24 03:58:08;;;;;;;9.33;2.33;;;22.20;99.90;;;;;;5112087;28;20220;-69
2023/04/24 04:00:37;;;;;;;13.43;2.93;;;22.30;99.90;;;;;;5113087;28;20182;-71
2023/04/24 04:03:04;;;;;;;7.10;2.20;;;22.30;99.90;;;;;;5112485;28;20193;-71
2023/04/24 04:05:32;;;;;;;12.70;2.77;;;22.30;99.90;;;;;;5098425;28;20231;-71
2023/04/24 04:08:00;;;;;;;9.33;2.27;;;22.40;99.90;;;;;;5092167;28;20780;-71
2023/04/24 04:10:27;;;;;;;15.80;3.20;;;22.30;99.90;;;;;;5107387;28;20259;-73
2023/04/24 04:13:06;;;;;;;12.27;2.67;;;22.40;99.90;;;;;;5089145;27;20570;-69
2023/04/24 04:15:33;;;;;;;15.77;2.57;;;22.40;99.90;;;;;;5088857;28;20624;-70
2023/04/24 04:18:01;;;;;;;14.63;2.60;;;22.40;99.90;;;;;;5088580;28;20177;-71
2023/04/24 04:20:28;;;;;;;14.83;4.50;;;22.30;99.90;;;;;;5089349;28;20184;-70
2023/04/24 04:22:56;;;;;;;12.43;3.30;;;22.30;99.90;;;;;;5088548;28;20223;-71
2023/04/24 04:25:23;;;;;;;13.23;2.80;;;22.30;99.90;;;;;;5087877;28;20183;-70
2023/04/24 04:27:51;;;;;;;8.63;1.87;;;22.40;99.90;;;;;;5088595;28;20276;-70
2023/04/24 04:30:18;;;;;;;7.07;2.00;;;22.30;99.90;;;;;;5088475;28;20224;-70
2023/04/24 04:32:46;;;;;;;8.47;2.43;;;22.40;99.90;;;;;;5088212;28;20645;-68
2023/04/24 04:35:13;;;;;;;12.97;3.87;;;22.20;99.90;;;;;;5088309;28;20262;-71
2023/04/24 04:37:40;;;;;;;14.13;5.93;;;22.00;99.90;;;;;;5088166;28;20193;-70
2023/04/24 04:40:11;;;;;;;14.90;3.70;;;21.90;99.90;;;;;;5088061;28;20183;-69
2023/04/24 04:42:40;;;;;;;10.00;2.87;;;21.80;99.90;;;;;;5086951;28;20231;-68
2023/04/24 04:45:11;;;;;;;15.13;3.03;;;21.80;99.90;;;;;;5087648;28;20175;-69
2023/04/24 04:47:39;;;;;;;11.53;3.00;;;21.80;99.90;;;;;;5087917;28;20266;-71
2023/04/24 04:50:07;;;;;;;10.80;3.10;;;21.70;99.90;;;;;;5088415;28;20191;-69
2023/04/24 04:52:34;;;;;;;7.53;2.73;;;21.60;99.90;;;;;;5088163;28;20269;-70
2023/04/24 04:55:02;;;;;;;9.03;3.03;;;21.40;99.90;;;;;;5088130;28;20187;-70
2023/04/24 04:57:30;;;;;;;13.13;2.70;;;21.30;99.90;;;;;;5086626;28;20187;-69
2023/04/24 04:59:58;;;;;;;10.33;2.67;;;21.30;99.90;;;;;;5087952;28;20177;-69
2023/04/24 05:02:25;;;;;;;15.13;3.40;;;21.30;99.90;;;;;;5088407;28;20224;-72
2023/04/24 05:04:53;;;;;;;8.27;2.37;;;21.30;99.90;;;;;;5088168;28;20642;-71
2023/04/24 05:07:23;;;;;;;10.30;3.07;;;21.40;99.90;;;;;;5087641;28;20244;-70
2023/04/24 05:09:52;;;;;;;14.90;2.47;;;21.40;99.90;;;;;;5086740;28;20664;-70
2023/04/24 05:12:19;;;;;;;11.20;2.33;;;21.50;99.90;;;;;;5087883;28;20223;-68
2023/04/24 05:14:46;;;;;;;14.23;2.63;;;21.50;99.90;;;;;;5086214;28;20536;-70
2023/04/24 05:17:14;;;;;;;13.97;4.03;;;21.60;99.90;;;;;;5087970;28;20304;-69
2023/04/24 05:19:42;;;;;;;18.43;3.83;;;21.60;99.90;;;;;;5087801;28;20229;-68
2023/04/24 05:22:11;;;;;;;16.40;3.10;;;21.50;99.90;;;;;;5087110;28;20215;-69
2023/04/24 05:24:38;;;;;;;10.73;2.37;;;21.50;99.90;;;;;;5073749;28;20180;-70
2023/04/24 05:27:06;;;;;;;14.70;2.87;;;21.50;99.90;;;;;;5074340;28;20262;-70
2023/04/24 05:29:33;;;;;;;11.00;2.63;;;21.50;99.90;;;;;;5073420;28;20266;-70
2023/04/24 05:32:01;;;;;;;18.77;3.80;;;21.50;99.90;;;;;;5073870;28;20449;-71
2023/04/24 05:34:28;;;;;;;12.00;3.00;;;21.50;99.90;;;;;;5072955;28;20226;-75
2023/04/24 05:36:56;;;;;;;9.27;2.07;;;21.60;99.90;;;;;;5070488;28;20691;-73
2023/04/24 05:39:24;;;;;;;11.43;2.73;;;21.70;99.90;;;;;;5074134;28;20179;-73
2023/04/24 05:41:52;;;;;;;15.77;2.80;;;21.90;99.90;;;;;;5061526;28;20180;-72
2023/04/24 05:44:20;;;;;;;11.67;2.37;;;21.90;99.90;;;;;;5073462;28;20179;-73
2023/04/24 05:46:47;;;;;;;15.43;2.87;;;21.70;99.90;;;;;;5072493;28;20191;-72
2023/04/24 05:49:15;;;;;;;9.47;2.33;;;21.90;99.90;;;;;;5073831;28;20188;-73
2023/04/24 05:51:42;;;;;;;13.57;2.67;;;22.10;99.90;;;;;;5074315;28;20204;-71
2023/04/24 05:54:11;;;;;;;11.03;2.67;;;22.30;99.90;;;;;;5073541;28;20227;-72
2023/04/24 05:56:40;;;;;;;11.87;2.60;;;22.20;99.90;;;;;;5071943;28;20201;-74
2023/04/24 05:59:08;;;;;;;9.93;3.07;;;22.00;99.90;;;;;;5073158;28;20193;-75
2023/04/24 06:01:36;;;;;;;12.33;3.13;;;21.80;99.90;;;;;;5073310;28;20195;-72
2023/04/24 06:04:05;;;;;;;15.33;3.10;;;21.60;99.90;;;;;;5073593;28;20515;-72
2023/04/24 06:06:33;;;;;;;13.50;2.87;;;21.50;99.90;;;;;;5071431;28;20555;-72
2023/04/24 06:09:00;;;;;;;13.40;2.67;;;21.50;99.90;;;;;;5073628;28;20179;-72
2023/04/24 06:11:28;;;;;;;9.83;2.47;;;21.60;99.90;;;;;;5073006;28;20235;-75
2023/04/24 06:13:55;;;;;;;11.23;2.87;;;21.60;99.90;;;;;;5072938;28;20258;-73
2023/04/24 06:16:22;;;;;;;11.47;2.70;;;21.70;99.90;;;;;;5073039;28;20586;-75
2023/04/24 06:18:50;;;;;;;15.33;3.00;;;21.80;99.90;;;;;;5073509;28;20211;-75
2023/04/24 06:21:18;;;;;;;10.03;2.50;;;21.80;99.90;;;;;;5071668;28;20567;-74
2023/04/24 06:23:46;;;;;;;13.77;2.97;;;21.80;99.90;;;;;;5073366;28;20966;-69
2023/04/24 06:26:13;;;;;;;18.07;3.47;;;21.70;99.90;;;;;;5073120;28;20668;-75
2023/04/24 06:28:41;;;;;;;11.23;3.00;;;21.60;99.90;;;;;;5072702;28;20182;-76
2023/04/24 06:31:08;;;;;;;12.57;2.90;;;21.60;99.90;;;;;;5073010;28;20254;-76
2023/04/24 06:33:35;;;;;;;14.13;2.97;;;21.60;99.90;;;;;;5073139;28;20205;-75
2023/04/24 06:36:03;;;;;;;16.20;3.13;;;21.60;99.90;;;;;;5071597;28;20233;-77
2023/04/24 06:38:31;;;;;;;18.87;3.80;;;21.60;99.90;;;;;;5072519;28;20242;-77
2023/04/24 06:40:58;;;;;;;19.20;4.10;;;21.50;99.90;;;;;;5071752;28;20184;-75
2023/04/24 06:43:25;;;;;;;16.87;3.70;;;21.40;99.90;;;;;;5072510;28;20179;-77
2023/04/24 06:45:53;;;;;;;21.73;4.50;;;21.30;99.90;;;;;;5072939;28;20221;-78
2023/04/24 06:48:20;;;;;;;18.20;4.33;;;20.90;99.90;;;;;;5072856;28;20174;-78
2023/04/24 06:50:48;;;;;;;22.07;4.67;;;20.50;99.90;;;;;;5072265;28;20253;-77
2023/04/24 06:53:15;;;;;;;19.53;5.03;;;20.10;99.90;;;;;;5072839;28;20222;-72
2023/04/24 06:55:46;;;;;;;24.90;4.90;;;19.90;99.90;;;;;;5072681;28;20662;-74
2023/04/24 06:58:14;;;;;;;16.60;3.80;;;19.80;99.90;;;;;;5072399;28;20173;-79
2023/04/24 07:00:42;;;;;;;23.47;3.63;;;19.80;99.90;;;;;;5072552;28;20177;-77
2023/04/24 07:03:09;;;;;;;20.60;3.57;;;19.80;99.90;;;;;;5072596;28;20172;-79
2023/04/24 07:05:38;;;;;;;22.87;3.70;;;19.80;99.90;;;;;;5070798;28;20189;-77
2023/04/24 07:11:29;;;;;;;18.53;3.93;;;19.80;99.90;;;;;;5071226;28;20310;-73
2023/04/24 07:13:56;;;;;;;22.57;4.00;;;19.70;99.90;;;;;;5071595;28;20200;-76
2023/04/24 07:23:08;;;;;;;24.73;3.70;;;19.60;99.90;;;;;;5071652;28;20275;-78
2023/04/24 07:25:35;;;;;;;24.67;4.00;;;19.60;99.90;;;;;;5072219;28;20600;-77
2023/04/24 07:31:25;;;;;;;19.97;4.20;;;19.50;99.90;;;;;;5071346;28;20210;-76
2023/04/24 07:33:53;;;;;;;23.40;4.40;;;19.40;99.90;;;;;;5072282;28;20670;-74
2023/04/24 07:36:20;;;;;;;24.17;4.40;;;19.40;99.90;;;;;;5071068;28;20653;-76
2023/04/24 07:38:48;;;;;;;20.07;4.53;;;19.40;99.90;;;;;;5071779;28;20577;-79
2023/04/24 07:41:15;;;;;;;17.80;4.23;;;19.40;99.90;;;;;;5071959;28;20179;-78
2023/04/24 07:43:43;;;;;;;16.83;3.90;;;19.40;99.90;;;;;;5071419;28;20712;-75
2023/04/24 07:46:10;;;;;;;15.37;3.90;;;19.50;99.90;;;;;;5071525;28;20171;-75
2023/04/24 07:48:38;;;;;;;17.13;3.83;;;19.50;99.90;;;;;;5071679;28;20180;-73
2023/04/24 07:51:05;;;;;;;14.03;3.33;;;19.50;99.90;;;;;;5071317;28;20206;-77
2023/04/24 07:53:33;;;;;;;17.70;3.43;;;19.50;99.90;;;;;;5071768;28;20225;-76
2023/04/24 07:56:00;;;;;;;14.17;2.93;;;19.50;99.90;;;;;;5070484;28;20189;-72
2023/04/24 07:58:27;;;;;;;21.10;4.20;;;19.50;99.90;;;;;;5070365;28;20264;-78
2023/04/24 08:00:55;;;;;;;16.83;3.33;;;19.50;99.90;;;;;;5071501;28;20641;-79
2023/04/24 08:03:23;;;;;;;14.33;2.90;;;19.30;99.90;;;;;;5070946;28;20549;-77
2023/04/24 08:05:50;;;;;;;12.30;2.73;;;19.30;99.90;;;;;;5070430;28;20636;-77
2023/04/24 08:08:21;;;;;;;10.17;3.03;;;19.30;99.90;;;;;;5070092;28;20196;-78
2023/04/24 08:10:48;;;;;;;16.07;2.60;;;19.30;99.90;;;;;;5071800;28;20176;-75
2023/04/24 08:13:15;;;;;;;11.80;3.03;;;19.30;99.90;;;;;;5071030;28;20318;-79
2023/04/24 08:15:43;;;;;;;12.33;2.90;;;19.30;99.90;;;;;;5071828;28;20580;-77
2023/04/24 08:18:12;;;;;;;10.87;2.70;;;19.20;99.90;;;;;;5071811;28;20277;-75
2023/04/24 08:20:40;;;;;;;11.50;3.20;;;19.30;99.90;;;;;;5070811;28;20186;-75
2023/04/24 08:23:07;;;;;;;10.60;2.97;;;19.30;99.90;;;;;;5071471;28;20237;-76
2023/04/24 08:25:35;;;;;;;18.37;3.43;;;19.30;99.90;;;;;;5070242;28;20272;-77
2023/04/24 08:28:05;;;;;;;10.63;2.97;;;19.30;99.90;;;;;;5070703;28;20574;-78
2023/04/24 08:30:33;;;;;;;11.43;3.27;;;19.30;99.90;;;;;;5071204;28;20215;-76
2023/04/24 08:33:00;;;;;;;16.53;2.93;;;19.30;99.90;;;;;;5071346;28;20223;-76
2023/04/24 08:35:28;;;;;;;13.23;3.00;;;19.20;99.90;;;;;;5071028;28;20182;-76
2023/04/24 08:37:55;;;;;;;13.60;3.07;;;19.20;99.90;;;;;;5071172;28;20196;-69
2023/04/24 08:40:29;;;;;;;10.37;2.40;;;19.30;99.90;;;;;;5072126;28;20183;-78
2023/04/24 08:42:57;;;;;;;9.20;2.37;;;19.30;99.90;;;;;;5070913;28;20635;-78
2023/04/24 08:45:25;;;;;;;11.57;2.70;;;19.30;99.90;;;;;;5071271;28;20175;-78
2023/04/24 08:47:56;;;;;;;7.90;2.00;;;19.30;99.90;;;;;;5071208;28;20210;-76
2023/04/24 08:50:24;;;;;;;5.43;1.63;;;19.20;99.90;;;;;;5070838;28;20187;-73
2023/04/24 08:52:53;;;;;;;9.83;1.60;;;19.10;99.90;;;;;;5071196;28;20212;-73
2023/04/24 08:55:21;;;;;;;4.80;1.50;;;19.00;99.90;;;;;;5071296;28;20642;-75
2023/04/24 08:57:53;;;;;;;10.50;2.57;;;19.00;99.90;;;;;;5071065;28;20310;-75
2023/04/24 09:00:22;;;;;;;4.17;1.37;;;18.90;99.90;;;;;;5074873;28;20184;-76
2023/04/24 09:02:50;;;;;;;5.80;1.77;;;18.90;99.90;;;;;;5074906;28;20192;-76
2023/04/24 09:05:21;;;;;;;5.23;1.60;;;18.90;99.90;;;;;;5074469;28;20251;-75
2023/04/24 09:07:54;;;;;;;9.07;2.40;;;18.80;99.90;;;;;;5074759;28;20198;-76
2023/04/24 09:10:26;;;;;;;9.43;2.70;;;18.90;99.90;;;;;;5074695;28;20734;-76
2023/04/24 09:13:03;;;;;;;9.57;2.47;;;18.90;99.90;;;;;;5072939;28;20236;-79
2023/04/24 09:15:42;;;;;;;12.43;2.83;;;19.00;99.90;;;;;;5073219;28;20232;-78
2023/04/24 09:18:09;;;;;;;7.70;2.60;;;19.00;99.90;;;;;;5073139;28;20187;-73
2023/04/24 09:21:00;;;;;;;12.23;3.27;;;19.00;99.90;;;;;;5074109;28;20264;-73
2023/04/24 09:23:32;;;;;;;9.83;2.43;;;19.00;99.90;;;;;;5074370;28;20266;-74
2023/04/24 09:26:01;;;;;;;12.07;3.33;;;19.00;99.90;;;;;;5074155;28;20176;-71
2023/04/24 09:28:33;;;;;;;10.97;2.63;;;18.90;99.90;;;;;;5074069;28;20187;-71
2023/04/24 09:31:13;;;;;;;12.10;2.77;;;19.00;99.90;;;;;;5074404;28;20304;-74
2023/04/24 09:33:53;;;;;;;17.80;3.23;;;19.00;99.90;;;;;;5073508;28;20188;-75
2023/04/24 09:36:27;;;;;;;17.40;3.23;;;19.00;99.90;;;;;;5074115;28;20176;-71
2023/04/24 09:39:00;;;;;;;16.23;3.27;;;18.80;99.90;;;;;;5074995;28;20183;-72
2023/04/24 09:41:29;;;;;;;12.77;2.70;;;18.80;99.90;;;;;;5074787;28;20176;-77
2023/04/24 09:43:57;;;;;;;10.60;3.00;;;18.80;99.90;;;;;;5074874;28;20180;-70
2023/04/24 09:46:32;;;;;;;14.70;3.47;;;18.70;99.90;;;;;;5074889;28;20180;-73
2023/04/24 09:49:10;;;;;;;18.37;3.37;;;18.60;99.90;;;;;;5074544;28;20171;-75
2023/04/24 09:51:40;;;;;;;20.47;3.67;;;18.50;99.90;;;;;;5074586;28;20212;-76
2023/04/24 09:54:20;;;;;;;20.67;4.10;;;18.40;99.90;;;;;;5074603;28;20262;-74
2023/04/24 09:56:50;;;;;;;21.50;4.30;;;18.30;99.90;;;;;;5074817;28;20259;-73
2023/04/24 09:59:19;;;;;;;16.77;3.70;;;18.30;99.90;;;;;;5073337;28;20180;-76
2023/04/24 10:01:49;;;;;;;24.63;3.80;;;18.20;99.90;;;;;;5074680;28;20245;-74
2023/04/24 10:04:24;;;;;;;24.33;4.33;;;18.10;99.90;;;;;;5074452;28;20172;-69
2023/04/24 10:06:54;;;;;;;21.30;3.87;;;18.00;99.90;;;;;;5074689;28;20228;-73
2023/04/24 10:09:24;;;;;;;27.37;4.13;;;18.00;99.90;;;;;;5074380;28;20206;-72
2023/04/24 10:11:53;;;;;;;22.20;3.73;;;18.00;99.90;;;;;;5072288;28;20268;-75
2023/04/24 10:14:23;;;;;;;18.37;3.70;;;18.00;99.90;;;;;;5072853;28;20233;-73
2023/04/24 10:16:56;;;;;;;28.10;4.23;;;17.90;99.90;;;;;;5074347;28;20591;-76
2023/04/24 10:19:26;;;;;;;18.47;3.93;;;17.90;99.90;;;;;;5074176;28;20538;-70
2023/04/24 10:21:55;;;;;;;10.97;3.23;;;17.90;99.90;;;;;;5073894;28;20185;-70
2023/04/24 10:24:22;;;;;;;21.53;4.60;;;17.90;99.90;;;;;;5073659;28;20186;-72
2023/04/24 10:26:50;;;;;;;18.70;3.70;;;17.90;99.90;;;;;;5074127;28;20211;-75
2023/04/24 10:29:19;;;;;;;31.43;5.93;;;17.90;99.90;;;;;;5074114;28;20174;-75
2023/04/24 10:31:47;;;;;;;22.67;3.93;;;18.00;99.90;;;;;;5073963;28;20208;-74
2023/04/24 10:34:17;;;;;;;17.20;3.87;;;18.00;99.90;;;;;;5074074;28;20605;-71
2023/04/24 10:36:51;;;;;;;17.80;3.67;;;18.00;99.90;;;;;;5074126;28;20652;-77
2023/04/24 10:39:19;;;;;;;17.33;4.23;;;18.00;99.90;;;;;;5073723;28;20176;-73
2023/04/24 10:41:49;;;;;;;23.20;4.00;;;18.00;99.90;;;;;;5074316;28;20180;-76
2023/04/24 10:44:16;;;;;;;8.73;3.37;;;18.00;99.90;;;;;;5074562;28;20612;-74
2023/04/24 10:46:48;;;;;;;17.50;3.70;;;17.90;99.90;;;;;;5073791;28;20202;-72
2023/04/24 10:49:15;;;;;;;17.23;3.90;;;17.90;99.90;;;;;;5073886;28;20176;-71
2023/04/24 10:51:50;;;;;;;21.77;3.93;;;17.90;99.90;;;;;;5073719;28;20210;-74
2023/04/24 10:54:26;;;;;;;22.33;3.93;;;17.80;99.90;;;;;;5073657;28;20169;-73
2023/04/24 10:57:13;;;;;;;23.50;5.07;;;17.70;99.90;;;;;;5072228;28;20656;-74
2023/04/24 10:59:41;;;;;;;20.87;4.03;;;17.60;99.90;;;;;;5073543;28;20259;-74
2023/04/24 11:02:09;;;;;;;21.33;4.20;;;17.50;99.90;;;;;;5072223;28;20279;-71
2023/04/24 11:04:37;;;;;;;16.17;3.53;;;17.40;99.90;;;;;;5073296;28;20179;-74
2023/04/24 11:07:04;;;;;;;20.30;3.80;;;17.30;99.90;;;;;;5073556;28;20176;-76
2023/04/24 11:09:34;;;;;;;16.10;3.73;;;17.30;99.90;;;;;;5073679;28;20176;-76
2023/04/24 11:12:08;;;;;;;14.13;3.60;;;17.30;99.90;;;;;;5071747;28;20232;-74
2023/04/24 11:14:54;;;;;;;19.27;3.80;;;17.30;99.90;;;;;;5073018;28;20178;-77
2023/04/24 11:17:42;;;;;;;15.60;3.77;;;17.30;99.90;;;;;;5073548;28;20182;-72
2023/04/24 11:20:12;;;;;;;13.03;3.80;;;17.20;99.90;;;;;;5073276;28;20180;-71
2023/04/24 11:22:40;;;;;;;15.87;3.30;;;17.10;99.90;;;;;;5072882;28;20198;-73
2023/04/24 11:25:09;;;;;;;17.20;4.07;;;17.00;99.90;;;;;;5073393;28;20176;-71
2023/04/24 11:27:46;;;;;;;22.07;3.90;;;16.90;99.90;;;;;;5073063;28;20275;-74
2023/04/24 11:30:19;;;;;;;21.83;4.50;;;16.90;99.90;;;;;;5072802;28;20180;-77
2023/04/24 11:32:51;;;;;;;20.13;3.70;;;16.90;99.90;;;;;;5073087;28;20244;-73
2023/04/24 11:35:28;;;;;;;16.27;3.80;;;16.90;99.90;;;;;;5073213;28;20253;-72
2023/04/24 11:37:56;;;;;;;21.97;4.87;;;16.90;99.90;;;;;;5072884;28;20186;-71
2023/04/24 11:40:25;;;;;;;23.17;4.13;;;17.00;99.90;;;;;;5073078;28;20536;-72
2023/04/24 11:42:57;;;;;;;20.63;4.13;;;17.00;99.90;;;;;;5073072;28;20241;-74
2023/04/24 11:45:26;;;;;;;17.23;3.50;;;17.00;99.90;;;;;;5073239;28;20217;-72
2023/04/24 11:47:54;;;;;;;13.93;3.50;;;17.20;99.90;;;;;;5072723;28;20533;-71
2023/04/24 11:50:28;;;;;;;14.77;4.13;;;17.20;99.90;;;;;;5072464;28;20191;-73
2023/04/24 11:52:55;;;;;;;17.00;3.90;;;17.20;99.90;;;;;;5072770;28;20632;-74
2023/04/24 11:55:25;;;;;;;14.67;3.50;;;17.30;99.90;;;;;;5071555;28;20183;-73
2023/04/24 11:57:58;;;;;;;17.43;4.40;;;17.40;99.90;;;;;;5072722;28;20192;-75
2023/04/24 12:00:31;;;;;;;21.70;4.93;;;17.40;99.90;;;;;;5072814;28;20657;-74
2023/04/24 12:03:10;;;;;;;18.60;4.30;;;17.50;99.90;;;;;;5072863;28;20180;-71
2023/04/24 12:05:38;;;;;;;25.53;5.47;;;17.50;99.90;;;;;;5072457;28;20537;-71
2023/04/24 12:08:06;;;;;;;17.40;3.27;;;17.60;99.90;;;;;;5072804;28;20176;-75
2023/04/24 12:10:34;;;;;;;13.53;4.13;;;17.50;99.90;;;;;;5072612;28;20180;-75
2023/04/24 12:13:02;;;;;;;22.57;4.73;;;17.50;99.90;;;;;;5072179;28;20235;-73
2023/04/24 12:15:30;;;;;;;19.87;3.93;;;17.50;99.90;;;;;;5072535;28;20186;-75
2023/04/24 12:17:57;;;;;;;22.17;4.03;;;17.50;99.90;;;;;;5072533;28;20186;-76
2023/04/24 12:20:33;;;;;;;24.30;4.00;;;17.50;99.90;;;;;;5072165;28;20270;-69
2023/04/24 12:23:01;;;;;;;21.37;4.50;;;17.50;99.90;;;;;;5072655;28;20215;-72
2023/04/24 12:25:31;;;;;;;15.13;3.50;;;17.50;99.90;;;;;;5072273;28;20229;-72
2023/04/24 12:28:04;;;;;;;18.80;4.63;;;17.50;99.90;;;;;;5072692;28;20176;-74
2023/04/24 12:30:34;;;;;;;11.80;4.13;;;17.50;99.90;;;;;;5072445;28;20183;-73
2023/04/24 12:33:02;;;;;;;18.00;4.20;;;17.60;99.90;;;;;;5073160;28;20598;-74
2023/04/24 12:35:33;;;;;;;16.87;4.50;;;17.50;99.90;;;;;;5076212;28;20597;-74
2023/04/24 12:38:17;;;;;;;13.83;3.73;;;17.60;99.90;;;;;;5076647;28;20175;-75
2023/04/24 12:40:45;;;;;;;17.63;4.20;;;17.60;99.90;;;;;;5075982;28;20244;-74
2023/04/24 12:43:17;;;;;;;16.07;3.70;;;17.60;99.90;;;;;;5076391;28;20719;-71
2023/04/24 12:45:45;;;;;;;16.73;3.87;;;17.60;99.90;;;;;;5076453;28;20179;-74
2023/04/24 12:48:13;;;;;;;19.13;3.63;;;17.60;99.90;;;;;;5074737;28;20176;-73
2023/04/24 12:50:41;;;;;;;14.00;4.20;;;17.60;99.90;;;;;;5076219;28;20181;-70
2023/04/24 12:53:09;;;;;;;14.80;3.73;;;17.60;99.90;;;;;;5076320;28;20216;-76
2023/04/24 12:55:38;;;;;;;14.13;3.80;;;17.50;99.90;;;;;;5075981;28;20185;-76
2023/04/24 12:58:06;;;;;;;16.90;3.83;;;17.40;99.90;;;;;;5076111;28;20176;-75
2023/04/24 13:00:33;;;;;;;21.50;4.67;;;17.40;99.90;;;;;;5075701;28;20591;-73
2023/04/24 13:03:01;;;;;;;14.40;4.40;;;17.40;99.90;;;;;;5076077;28;20678;-76